CEFAS Endeavour — VQHF3 — position and weather

sailwx.info

Track history (hours):
 
Tides and Currents Weather Stations Pressure Air Temp Water Temp Dewpoint Dewpoint Depression Visibility Wind Speed Wind Dir Waves Ship Positions

Oceanographic research ship CEFAS Endeavour (UK)

Detailed information on ship capabilities available from University of Delaware's Ocean Information Center.

Last reported at 2016-Feb-10 12:33 UTC. Time now 2016-Feb-10 12:48 UTC.
Position N 53°46' E 006°37'.

Length 74 m; draft 6.9 m.

Type: Cargo ship. MMSI: 235005270.

Date/timePositionNaut miles runAvg speedWind from/ knotsBaromVisibWave heightAir tempDewpointWater temp
2016-Feb-10 12:33N 53°46' E 006°37'1312.9
2016-Feb-10 11:33N 53°40' E 006°17'7 6.7
2016-Feb-10 10:33N 53°37' E 006°08'5 5.3
2016-Feb-10 09:33N 53°36' E 005°59'1312.7
2016-Feb-10 08:34N 53°42' E 005°40'9 9.4
2016-Feb-10 07:33N 53°45' E 005°25'4 4.0
2016-Feb-10 06:33N 53°45' E 005°18'4 4.3
2016-Feb-10 05:33N 53°49' E 005°18'2 2.3
2016-Feb-10 04:33N 53°52' E 005°18'1110.7
2016-Feb-10 03:33N 53°43' E 005°09'8 7.6
2016-Feb-10 02:33N 53°35' E 005°12'9 8.7
2016-Feb-10 01:33N 53°29' E 005°04'9 8.8
2016-Feb-10 00:31N 53°25' E 004°49'1010.6
2016-Feb-09 23:33N 53°17' E 004°38'8 7.9
2016-Feb-09 22:32N 53°10' E 004°33'12 8.7
2016-Feb-09 21:10N 52°59' E 004°23'610.2
2016-Feb-09 20:33N 52°53' E 004°21'9 8.7
2016-Feb-09 19:33N 52°45' E 004°20'1110.7
2016-Feb-09 18:33N 52°34' E 004°21'7 7.3
2016-Feb-09 17:33N 52°27' E 004°23'8 8.2
2016-Feb-09 16:33N 52°19' E 004°20'6 6.3
2016-Feb-09 15:33N 52°12' E 004°20'4 3.6
2016-Feb-09 14:33N 52°10' E 004°16'8 8.2
2016-Feb-09 13:34N 52°06' E 004°04'2 1.9
2016-Feb-09 12:33N 52°04' E 004°03'8 7.7
2016-Feb-09 11:33N 52°06' E 004°16'0 0.0
2016-Feb-09 10:33N 52°06' E 004°16'0 0.0
2016-Feb-09 09:30N 52°06' E 004°16'0 0.0
2016-Feb-09 08:33N 52°06' E 004°16'0 0.0
2016-Feb-09 07:33N 52°06' E 004°16'0 0.0
2016-Feb-09 06:33N 52°06' E 004°16'0 0.0
2016-Feb-09 05:33N 52°06' E 004°16'0 0.0
2016-Feb-09 04:33N 52°06' E 004°16'0 0.0
2016-Feb-09 03:33N 52°06' E 004°16'0 0.0
2016-Feb-09 02:33N 52°06' E 004°16'0 0.0
2016-Feb-09 01:33N 52°06' E 004°16'0 0.0
2016-Feb-09 00:33N 52°06' E 004°16'0 0.0
2016-Feb-08 23:33N 52°06' E 004°16'0 0.0
2016-Feb-08 22:33N 52°06' E 004°16'0 0.0
2016-Feb-08 21:33N 52°06' E 004°16'0 0.0
2016-Feb-08 20:33N 52°06' E 004°16'0 0.0
2016-Feb-08 19:33N 52°06' E 004°16'0 0.0
2016-Feb-08 18:33N 52°06' E 004°16'0 0.0
2016-Feb-08 17:27N 52°06' E 004°16'0 0.0
2016-Feb-08 16:33N 52°06' E 004°16'0 0.0
2016-Feb-08 15:33N 52°06' E 004°16'0 0.0
2016-Feb-08 14:30N 52°06' E 004°16'0 0.0
2016-Feb-08 13:33N 52°06' E 004°16'0 0.0
2016-Feb-08 12:33N 52°06' E 004°16'7 6.5
2016-Feb-08 11:33N 52°04' E 004°06'5 4.9
2016-Feb-08 10:33N 51°59' E 004°03'6 6.5
2016-Feb-08 09:33N 52°01' E 003°53'5 4.7
2016-Feb-08 08:33N 52°00' E 003°46'3 2.9
2016-Feb-08 07:32N 52°03' E 003°47'6 5.9
2016-Feb-08 06:33N 52°09' E 003°46'62 6.2
2016-Feb-07 20:33N 52°24' E 002°08'1110.8
2016-Feb-07 19:33N 52°27' E 001°51'4 4.0
2016-Feb-07 18:33N 52°28' E 001°45'0 0.2
2016-Feb-07 17:33N 52°28' E 001°45'0 0.0
2016-Feb-07 16:33N 52°28' E 001°45'0 0.0
2016-Feb-07 15:33N 52°28' E 001°45'0 0.0
2016-Feb-07 14:33N 52°28' E 001°45'0 0.0
2016-Feb-07 13:33N 52°28' E 001°45'0 0.0
2016-Feb-07 12:33N 52°28' E 001°45'0 0.0
2016-Feb-07 11:33N 52°28' E 001°45'0 0.0
2016-Feb-07 03:33N 52°28' E 001°45'0 0.0
2016-Feb-07 02:33N 52°28' E 001°45'0 0.0
2016-Feb-07 01:33N 52°28' E 001°45'0 0.0
2016-Feb-07 00:24N 52°28' E 001°45'0 0.0
2016-Feb-06 15:21N 52°28' E 001°45'0 0.0
2016-Feb-06 14:33N 52°28' E 001°45'0 0.0
2016-Feb-06 13:33N 52°28' E 001°45'0 0.0
2016-Feb-06 12:30N 52°28' E 001°45'0 0.0
2016-Feb-06 11:33N 52°28' E 001°45'0 0.0
2016-Feb-06 10:27N 52°28' E 001°45'0 0.0
2016-Feb-06 09:21N 52°28' E 001°45'0 0.0
2016-Feb-06 08:27N 52°28' E 001°45'0 0.0
2016-Feb-06 07:33N 52°28' E 001°45'0 0.0
2016-Feb-06 06:33N 52°28' E 001°45'0 0.0
2016-Feb-06 05:33N 52°28' E 001°45'0 0.0
2016-Feb-06 04:33N 52°28' E 001°45'0 0.0
2016-Feb-06 03:30N 52°28' E 001°45'0 0.0
2016-Feb-06 02:33N 52°28' E 001°45'0 0.0
2016-Feb-06 01:33N 52°28' E 001°45'0 0.0
2016-Feb-06 00:33N 52°28' E 001°45'0 0.0
2016-Feb-05 23:30N 52°28' E 001°45'0 0.0
2016-Feb-05 22:33N 52°28' E 001°45'0 0.0
2016-Feb-05 21:27N 52°28' E 001°45'0 0.0
2016-Feb-05 20:33N 52°28' E 001°45'0 0.0
2016-Feb-05 19:27N 52°28' E 001°45'0 0.0
2016-Feb-05 18:33N 52°28' E 001°45'2 1.6
2016-Feb-05 17:33N 52°29' E 001°47'5 4.9
2016-Feb-05 16:33N 52°25' E 001°49'1111.0
2016-Feb-05 15:33N 52°14' E 001°46'6 6.0
2016-Feb-05 14:33N 52°10' E 001°53'1212.2
2016-Feb-05 13:33N 52°00' E 002°06'2110.2
2016-Feb-05 11:31N 51°40' E 002°03'1313.1
2016-Feb-05 10:33N 51°36' E 001°43'6 5.6
2016-Feb-05 09:34N 51°34' E 001°35'0 0.1
2016-Feb-05 08:34N 51°34' E 001°35'0 0.1
2016-Feb-05 07:34N 51°34' E 001°35'4 4.1
2016-Feb-05 06:34N 51°36' E 001°41'5 4.7
2016-Feb-05 05:34N 51°40' E 001°45'6 6.0
2016-Feb-05 04:34N 51°46' E 001°44'5 4.6
2016-Feb-05 03:34N 51°50' E 001°39'6 5.7
2016-Feb-05 02:34N 51°48' E 001°30'6 6.4
2016-Feb-05 01:34N 51°43' E 001°23'7 6.8
2016-Feb-05 00:33N 51°39' E 001°16'8 7.4
2016-Feb-04 23:30N 51°34' E 001°06'3 3.3
2016-Feb-04 22:32N 51°32' E 001°02'0 0.2
2016-Feb-04 21:31N 51°32' E 001°02'0 0.1
2016-Feb-04 20:29N 51°31' E 001°02'0 0.0
2016-Feb-04 19:33N 51°31' E 001°02'0 0.1
2016-Feb-04 18:33N 51°32' E 001°02'0 0.1
2016-Feb-04 17:33N 51°32' E 001°02'0 0.1
2016-Feb-04 16:33N 51°31' E 001°02'0 0.0
2016-Feb-04 15:33N 51°31' E 001°02'0 0.0
2016-Feb-04 14:32N 51°31' E 001°02'0 0.1
2016-Feb-04 13:33N 51°31' E 001°02'0 0.0
2016-Feb-04 12:33N 51°31' E 001°02'0 0.1
2016-Feb-04 11:33N 51°31' E 001°02'0 0.2
2016-Feb-04 10:33N 51°31' E 001°02'0 0.1
2016-Feb-04 09:32N 51°31' E 001°02'0 0.2
2016-Feb-04 08:33N 51°32' E 001°02'2 2.2
2016-Feb-04 07:33N 51°33' E 001°04'1211.9
2016-Feb-04 06:33N 51°41' E 001°19'1110.6
2016-Feb-04 05:33N 51°48' E 001°31'1010.1
2016-Feb-04 04:33N 51°55' E 001°44'5 5.3
2016-Feb-04 03:33N 51°60' E 001°42'1 1.4
2016-Feb-04 02:33N 52°00' E 001°44'1 1.0
2016-Feb-04 01:33N 51°60' E 001°43'1 1.2
2016-Feb-04 00:33N 51°60' E 001°45'5 4.8
2016-Feb-03 23:33N 51°60' E 001°53'7 7.1
2016-Feb-03 22:33N 51°59' E 002°04'2 1.3
2016-Feb-03 21:21N 51°58' E 002°05'1 0.7
2016-Feb-03 20:33N 51°58' E 002°06'2 1.6
2016-Feb-03 19:28N 51°60' E 002°05'1 1.3
2016-Feb-03 18:33N 51°59' E 002°06'1 0.6
2016-Feb-03 17:33N 51°59' E 002°05'0 0.2
2016-Feb-03 16:33N 51°59' E 002°05'0 0.2
2016-Feb-03 15:33N 51°59' E 002°05'6 5.0
2016-Feb-03 14:23N 52°04' E 002°01'1113.5
2016-Feb-03 13:33N 52°13' E 001°52'6 1.9
2016-Feb-03 10:30N 52°19' E 001°47'6 6.7
2016-Feb-03 09:32N 52°25' E 001°50'1010.5
2016-Feb-03 08:33N 52°35' E 001°54'7 6.9
2016-Feb-03 07:33N 52°42' E 001°55'1111.2
2016-Feb-03 06:33N 52°51' E 001°44'1212.3
2016-Feb-03 05:33N 52°60' E 001°30'1312.8
2016-Feb-03 04:33N 53°04' E 001°10'1312.9
2016-Feb-03 03:33N 53°11' E 000°51'4412.7
2016-Feb-03 00:05N 53°49' E 000°15'913.2
2016-Feb-02 23:24N 53°57' E 000°08'1113.0
2016-Feb-02 22:33N 54°07' W 000°00'9 8.6
2016-Feb-02 21:34N 54°14' W 000°09'1413.7
2016-Feb-02 20:34N 54°25' W 000°23'1413.6
2016-Feb-02 19:30N 54°35' W 000°41'1313.4
2016-Feb-02 18:30N 54°43' W 000°59'9 9.6
2016-Feb-02 17:32N 54°51' W 001°06'1312.8
2016-Feb-02 16:33N 55°04' W 001°12'1312.7
2016-Feb-02 15:33N 55°16' W 001°19'3911.2
2016-Feb-02 12:06N 55°50' W 001°51'813.9
2016-Feb-02 11:33N 55°54' W 002°02'1313.1
2016-Feb-02 10:33N 55°59' W 002°24'1 0.7
2016-Feb-02 09:33N 55°59' W 002°23'1 1.0
2016-Feb-02 08:33N 55°59' W 002°24'1 1.1
2016-Feb-02 07:33N 55°59' W 002°23'6 5.9
2016-Feb-02 06:33N 55°58' W 002°12'8 8.0
2016-Feb-02 05:33N 55°54' W 002°00'8 8.5
2016-Feb-02 04:33N 55°49' W 001°48'8 7.8
2016-Feb-02 03:32N 55°44' W 001°37'19 8.6
2016-Feb-02 01:19N 55°26' W 001°25'7 8.5
2016-Feb-02 00:33N 55°20' W 001°21'8 8.0
2016-Feb-01 23:33N 55°12' W 001°17'8 8.4
2016-Feb-01 22:33N 55°04' W 001°12'9 8.2
2016-Feb-01 21:31N 54°56' W 001°07'8 8.5
2016-Feb-01 20:33N 54°48' W 001°03'9 8.3
2016-Feb-01 19:30N 54°41' W 000°55'9 9.3
2016-Feb-01 18:32N 54°36' W 000°42'1110.8
2016-Feb-01 17:33N 54°29' W 000°28'1211.6
2016-Feb-01 16:33N 54°20' W 000°17'1111.2
2016-Feb-01 15:33N 54°11' W 000°05'1212.0
2016-Feb-01 14:33N 54°00' E 000°05'1211.7
2016-Feb-01 13:33N 53°50' E 000°16'41 5.1
2016-Feb-01 05:34N 53°24' E 001°07'1414.2
2016-Feb-01 04:32N 53°11' E 001°19'1313.6
2016-Feb-01 03:33N 52°59' E 001°30'1312.8
2016-Feb-01 02:33N 52°48' E 001°41'1110.8
2016-Feb-01 01:33N 52°38' E 001°46'10 9.6
2016-Feb-01 00:33N 52°29' E 001°46'1 0.8
2016-Jan-31 23:28N 52°28' E 001°45'0 0.0
2016-Jan-31 22:31N 52°28' E 001°45'0 0.0
2016-Jan-31 19:31N 52°28' E 001°45'0 0.0
2016-Jan-31 18:31N 52°28' E 001°45'0 0.0
2016-Jan-31 17:31N 52°28' E 001°45'0 0.0
2016-Jan-31 16:31N 52°28' E 001°45'0 0.0
2016-Jan-31 14:25N 52°28' E 001°45'  
Track history (hours):
 
Tides and Currents Weather Stations Pressure Air Temp Water Temp Dewpoint Dewpoint Depression Visibility Wind Speed Wind Dir Waves Ship Positions

Oceanographic research ship CEFAS Endeavour (UK)

Detailed information on ship capabilities available from University of Delaware's Ocean Information Center.

Last reported at 2016-Feb-10 12:33 UTC. Time now 2016-Feb-10 12:48 UTC.
Position N 53°46' E 006°37'.

Length 74 m; draft 6.9 m.

Type: Cargo ship. MMSI: 235005270.

Date/timePositionNaut miles runAvg speedWind from/ knotsBaromVisibWave heightAir tempDewpointWater temp
2016-Feb-10 12:33N 53°46' E 006°37'1312.9
2016-Feb-10 11:33N 53°40' E 006°17'7 6.7
2016-Feb-10 10:33N 53°37' E 006°08'5 5.3
2016-Feb-10 09:33N 53°36' E 005°59'1312.7
2016-Feb-10 08:34N 53°42' E 005°40'9 9.4
2016-Feb-10 07:33N 53°45' E 005°25'4 4.0
2016-Feb-10 06:33N 53°45' E 005°18'4 4.3
2016-Feb-10 05:33N 53°49' E 005°18'2 2.3
2016-Feb-10 04:33N 53°52' E 005°18'1110.7
2016-Feb-10 03:33N 53°43' E 005°09'8 7.6
2016-Feb-10 02:33N 53°35' E 005°12'9 8.7
2016-Feb-10 01:33N 53°29' E 005°04'9 8.8
2016-Feb-10 00:31N 53°25' E 004°49'1010.6
2016-Feb-09 23:33N 53°17' E 004°38'8 7.9
2016-Feb-09 22:32N 53°10' E 004°33'12 8.7
2016-Feb-09 21:10N 52°59' E 004°23'610.2
2016-Feb-09 20:33N 52°53' E 004°21'9 8.7
2016-Feb-09 19:33N 52°45' E 004°20'1110.7
2016-Feb-09 18:33N 52°34' E 004°21'7 7.3
2016-Feb-09 17:33N 52°27' E 004°23'8 8.2
2016-Feb-09 16:33N 52°19' E 004°20'6 6.3
2016-Feb-09 15:33N 52°12' E 004°20'4 3.6
2016-Feb-09 14:33N 52°10' E 004°16'8 8.2
2016-Feb-09 13:34N 52°06' E 004°04'2 1.9
2016-Feb-09 12:33N 52°04' E 004°03'8 7.7
2016-Feb-09 11:33N 52°06' E 004°16'0 0.0
2016-Feb-09 10:33N 52°06' E 004°16'0 0.0
2016-Feb-09 09:30N 52°06' E 004°16'0 0.0
2016-Feb-09 08:33N 52°06' E 004°16'0 0.0
2016-Feb-09 07:33N 52°06' E 004°16'0 0.0
2016-Feb-09 06:33N 52°06' E 004°16'0 0.0
2016-Feb-09 05:33N 52°06' E 004°16'0 0.0
2016-Feb-09 04:33N 52°06' E 004°16'0 0.0
2016-Feb-09 03:33N 52°06' E 004°16'0 0.0
2016-Feb-09 02:33N 52°06' E 004°16'0 0.0
2016-Feb-09 01:33N 52°06' E 004°16'0 0.0
2016-Feb-09 00:33N 52°06' E 004°16'0 0.0
2016-Feb-08 23:33N 52°06' E 004°16'0 0.0
2016-Feb-08 22:33N 52°06' E 004°16'0 0.0
2016-Feb-08 21:33N 52°06' E 004°16'0 0.0
2016-Feb-08 20:33N 52°06' E 004°16'0 0.0
2016-Feb-08 19:33N 52°06' E 004°16'0 0.0
2016-Feb-08 18:33N 52°06' E 004°16'0 0.0
2016-Feb-08 17:27N 52°06' E 004°16'0 0.0
2016-Feb-08 16:33N 52°06' E 004°16'0 0.0
2016-Feb-08 15:33N 52°06' E 004°16'0 0.0
2016-Feb-08 14:30N 52°06' E 004°16'0 0.0
2016-Feb-08 13:33N 52°06' E 004°16'0 0.0
2016-Feb-08 12:33N 52°06' E 004°16'7 6.5
2016-Feb-08 11:33N 52°04' E 004°06'5 4.9
2016-Feb-08 10:33N 51°59' E 004°03'6 6.5
2016-Feb-08 09:33N 52°01' E 003°53'5 4.7
2016-Feb-08 08:33N 52°00' E 003°46'3 2.9
2016-Feb-08 07:32N 52°03' E 003°47'6 5.9
2016-Feb-08 06:33N 52°09' E 003°46'62 6.2
2016-Feb-07 20:33N 52°24' E 002°08'1110.8
2016-Feb-07 19:33N 52°27' E 001°51'4 4.0
2016-Feb-07 18:33N 52°28' E 001°45'0 0.2
2016-Feb-07 17:33N 52°28' E 001°45'0 0.0
2016-Feb-07 16:33N 52°28' E 001°45'0 0.0
2016-Feb-07 15:33N 52°28' E 001°45'0 0.0
2016-Feb-07 14:33N 52°28' E 001°45'0 0.0
2016-Feb-07 13:33N 52°28' E 001°45'0 0.0
2016-Feb-07 12:33N 52°28' E 001°45'0 0.0
2016-Feb-07 11:33N 52°28' E 001°45'0 0.0
2016-Feb-07 03:33N 52°28' E 001°45'0 0.0
2016-Feb-07 02:33N 52°28' E 001°45'0 0.0
2016-Feb-07 01:33N 52°28' E 001°45'0 0.0
2016-Feb-07 00:24N 52°28' E 001°45'0 0.0
2016-Feb-06 15:21N 52°28' E 001°45'0 0.0
2016-Feb-06 14:33N 52°28' E 001°45'0 0.0
2016-Feb-06 13:33N 52°28' E 001°45'0 0.0
2016-Feb-06 12:30N 52°28' E 001°45'0 0.0
2016-Feb-06 11:33N 52°28' E 001°45'0 0.0
2016-Feb-06 10:27N 52°28' E 001°45'0 0.0
2016-Feb-06 09:21N 52°28' E 001°45'0 0.0
2016-Feb-06 08:27N 52°28' E 001°45'0 0.0
2016-Feb-06 07:33N 52°28' E 001°45'0 0.0
2016-Feb-06 06:33N 52°28' E 001°45'0 0.0
2016-Feb-06 05:33N 52°28' E 001°45'0 0.0
2016-Feb-06 04:33N 52°28' E 001°45'0 0.0
2016-Feb-06 03:30N 52°28' E 001°45'0 0.0
2016-Feb-06 02:33N 52°28' E 001°45'0 0.0
2016-Feb-06 01:33N 52°28' E 001°45'0 0.0
2016-Feb-06 00:33N 52°28' E 001°45'0 0.0
2016-Feb-05 23:30N 52°28' E 001°45'0 0.0
2016-Feb-05 22:33N 52°28' E 001°45'0 0.0
2016-Feb-05 21:27N 52°28' E 001°45'0 0.0
2016-Feb-05 20:33N 52°28' E 001°45'0 0.0
2016-Feb-05 19:27N 52°28' E 001°45'0 0.0
2016-Feb-05 18:33N 52°28' E 001°45'2 1.6
2016-Feb-05 17:33N 52°29' E 001°47'5 4.9
2016-Feb-05 16:33N 52°25' E 001°49'1111.0
2016-Feb-05 15:33N 52°14' E 001°46'6 6.0
2016-Feb-05 14:33N 52°10' E 001°53'1212.2
2016-Feb-05 13:33N 52°00' E 002°06'2110.2
2016-Feb-05 11:31N 51°40' E 002°03'1313.1
2016-Feb-05 10:33N 51°36' E 001°43'6 5.6
2016-Feb-05 09:34N 51°34' E 001°35'0 0.1
2016-Feb-05 08:34N 51°34' E 001°35'0 0.1
2016-Feb-05 07:34N 51°34' E 001°35'4 4.1
2016-Feb-05 06:34N 51°36' E 001°41'5 4.7
2016-Feb-05 05:34N 51°40' E 001°45'6 6.0
2016-Feb-05 04:34N 51°46' E 001°44'5 4.6
2016-Feb-05 03:34N 51°50' E 001°39'6 5.7
2016-Feb-05 02:34N 51°48' E 001°30'6 6.4
2016-Feb-05 01:34N 51°43' E 001°23'7 6.8
2016-Feb-05 00:33N 51°39' E 001°16'8 7.4
2016-Feb-04 23:30N 51°34' E 001°06'3 3.3
2016-Feb-04 22:32N 51°32' E 001°02'0 0.2
2016-Feb-04 21:31N 51°32' E 001°02'0 0.1
2016-Feb-04 20:29N 51°31' E 001°02'0 0.0
2016-Feb-04 19:33N 51°31' E 001°02'0 0.1
2016-Feb-04 18:33N 51°32' E 001°02'0 0.1
2016-Feb-04 17:33N 51°32' E 001°02'0 0.1
2016-Feb-04 16:33N 51°31' E 001°02'0 0.0
2016-Feb-04 15:33N 51°31' E 001°02'0 0.0
2016-Feb-04 14:32N 51°31' E 001°02'0 0.1
2016-Feb-04 13:33N 51°31' E 001°02'0 0.0
2016-Feb-04 12:33N 51°31' E 001°02'0 0.1
2016-Feb-04 11:33N 51°31' E 001°02'0 0.2
2016-Feb-04 10:33N 51°31' E 001°02'0 0.1
2016-Feb-04 09:32N 51°31' E 001°02'0 0.2
2016-Feb-04 08:33N 51°32' E 001°02'2 2.2
2016-Feb-04 07:33N 51°33' E 001°04'1211.9
2016-Feb-04 06:33N 51°41' E 001°19'1110.6
2016-Feb-04 05:33N 51°48' E 001°31'1010.1
2016-Feb-04 04:33N 51°55' E 001°44'5 5.3
2016-Feb-04 03:33N 51°60' E 001°42'1 1.4
2016-Feb-04 02:33N 52°00' E 001°44'1 1.0
2016-Feb-04 01:33N 51°60' E 001°43'1 1.2
2016-Feb-04 00:33N 51°60' E 001°45'5 4.8
2016-Feb-03 23:33N 51°60' E 001°53'7 7.1
2016-Feb-03 22:33N 51°59' E 002°04'2 1.3
2016-Feb-03 21:21N 51°58' E 002°05'1 0.7
2016-Feb-03 20:33N 51°58' E 002°06'2 1.6
2016-Feb-03 19:28N 51°60' E 002°05'1 1.3
2016-Feb-03 18:33N 51°59' E 002°06'1 0.6
2016-Feb-03 17:33N 51°59' E 002°05'0 0.2
2016-Feb-03 16:33N 51°59' E 002°05'0 0.2
2016-Feb-03 15:33N 51°59' E 002°05'6 5.0
2016-Feb-03 14:23N 52°04' E 002°01'1113.5
2016-Feb-03 13:33N 52°13' E 001°52'6 1.9
2016-Feb-03 10:30N 52°19' E 001°47'6 6.7
2016-Feb-03 09:32N 52°25' E 001°50'1010.5
2016-Feb-03 08:33N 52°35' E 001°54'7 6.9
2016-Feb-03 07:33N 52°42' E 001°55'1111.2
2016-Feb-03 06:33N 52°51' E 001°44'1212.3
2016-Feb-03 05:33N 52°60' E 001°30'1312.8
2016-Feb-03 04:33N 53°04' E 001°10'1312.9
2016-Feb-03 03:33N 53°11' E 000°51'4412.7
2016-Feb-03 00:05N 53°49' E 000°15'913.2
2016-Feb-02 23:24N 53°57' E 000°08'1113.0
2016-Feb-02 22:33N 54°07' W 000°00'9 8.6
2016-Feb-02 21:34N 54°14' W 000°09'1413.7
2016-Feb-02 20:34N 54°25' W 000°23'1413.6
2016-Feb-02 19:30N 54°35' W 000°41'1313.4
2016-Feb-02 18:30N 54°43' W 000°59'9 9.6
2016-Feb-02 17:32N 54°51' W 001°06'1312.8
2016-Feb-02 16:33N 55°04' W 001°12'1312.7
2016-Feb-02 15:33N 55°16' W 001°19'3911.2
2016-Feb-02 12:06N 55°50' W 001°51'813.9
2016-Feb-02 11:33N 55°54' W 002°02'1313.1
2016-Feb-02 10:33N 55°59' W 002°24'1 0.7
2016-Feb-02 09:33N 55°59' W 002°23'1 1.0
2016-Feb-02 08:33N 55°59' W 002°24'1 1.1
2016-Feb-02 07:33N 55°59' W 002°23'6 5.9
2016-Feb-02 06:33N 55°58' W 002°12'8 8.0
2016-Feb-02 05:33N 55°54' W 002°00'8 8.5
2016-Feb-02 04:33N 55°49' W 001°48'8 7.8
2016-Feb-02 03:32N 55°44' W 001°37'19 8.6
2016-Feb-02 01:19N 55°26' W 001°25'7 8.5
2016-Feb-02 00:33N 55°20' W 001°21'8 8.0
2016-Feb-01 23:33N 55°12' W 001°17'8 8.4
2016-Feb-01 22:33N 55°04' W 001°12'9 8.2
2016-Feb-01 21:31N 54°56' W 001°07'8 8.5
2016-Feb-01 20:33N 54°48' W 001°03'9 8.3
2016-Feb-01 19:30N 54°41' W 000°55'9 9.3
2016-Feb-01 18:32N 54°36' W 000°42'1110.8
2016-Feb-01 17:33N 54°29' W 000°28'1211.6
2016-Feb-01 16:33N 54°20' W 000°17'1111.2
2016-Feb-01 15:33N 54°11' W 000°05'1212.0
2016-Feb-01 14:33N 54°00' E 000°05'1211.7
2016-Feb-01 13:33N 53°50' E 000°16'41 5.1
2016-Feb-01 05:34N 53°24' E 001°07'1414.2
2016-Feb-01 04:32N 53°11' E 001°19'1313.6
2016-Feb-01 03:33N 52°59' E 001°30'1312.8
2016-Feb-01 02:33N 52°48' E 001°41'1110.8
2016-Feb-01 01:33N 52°38' E 001°46'10 9.6
2016-Feb-01 00:33N 52°29' E 001°46'1 0.8
2016-Jan-31 23:28N 52°28' E 001°45'0 0.0
2016-Jan-31 22:31N 52°28' E 001°45'0 0.0
2016-Jan-31 19:31N 52°28' E 001°45'0 0.0
2016-Jan-31 18:31N 52°28' E 001°45'0 0.0
2016-Jan-31 17:31N 52°28' E 001°45'0 0.0
2016-Jan-31 16:31N 52°28' E 001°45'0 0.0
2016-Jan-31 14:25N 52°28' E 001°45'  

Dump ship's entire track history